Terminal Aerodrome Forecast
Issued by NWS Cleveland, OH

Home | Current Version | Previous Version | Text Only | Print | Product List | Glossary Off
Versions: 1 2 3 4 5 6 7 8 9 10 11 12 13 14 15 16 17 18 19 20 21 22 23 24 25 26 27 28

518
FTUS41 KCLE 072337
TAFCLE
TAF
KCLE 072337Z 0800/0906 21010KT P6SM BKN100
     FM080800 24012G20KT P6SM OVC070
     FM081400 25015G25KT P6SM OVC050
     FM081800 27020G32KT P6SM VCSH OVC035=

USA.gov is the U.S. government's official web portal to all federal, state and local government web resources and services.